Airport details for: LZKZ (Slovak Republic)

Metar

LZKZ 152100Z 35008KT 5000 BR BKN004 OVC095 04/03 Q1000

General details

ICAO: LZKZ
IATA: KSC
Name (city): Kosice
Major:
Country: Slovak Republic
vACC: vACC Slovakia
Description:

Košice International Airport (Slovak: Medzinárodné letisko Košice) serves Košice, Slovakia and is the second largest international airport in Slovakia. It is located 6 km (3.7 mi) to the south of St. Elisabeth Cathedral, 230 m (750 ft) above sea level, covering an area of 3.50 km2 (1.35 sq mi). It serves both scheduled and chartered, domestic and international flights. Airport capacity is currently 800,000 passengers a year.

Scenery links:
FS9 scenery: Download
FSX/P3D scenery: Download
XP scenery: Download
Elevation: 755 ft.
Transition altitude: 8000 ft.
MSA: 10100 ft.
Latitude: 48.663056
Longitude: 21.241111
LZKZ Charts
LZKZ Notams
LZKZ Online stations

Runways

Number Course Length Elevation Lat Lon ILS ILS freq ILS FAC GP
01 10171ft / 3100 m 739ft 48.649447 21.236406 109.5 3.0°
19 189° 10171ft / 3100 m 753ft 48.676614 21.245903 - - 3.0°